Aviation Digital Data Service (ADDS)

Output produced by METARs form (1550 UTC 19 September 2014)
found at http://aviationweather.gov/adds/metars/
 
KCLT 191502Z 1915/2012 10007KT P6SM VCSH SCT050 BKN110 
     FM192100 08008KT P6SM SCT060 BKN120 
     FM200100 07007KT P6SM SCT070